sensor_id;sensor_type;location;lat;lon;timestamp;temperature;humidity
30186;DHT22;31152;49.190;8.122;2023-04-03T00:01:18;6.20;99.90
30186;DHT22;31152;49.190;8.122;2023-04-03T00:03:45;6.20;99.90
30186;DHT22;31152;49.190;8.122;2023-04-03T00:06:15;6.20;99.90
30186;DHT22;31152;49.190;8.122;2023-04-03T00:08:42;6.10;99.90
30186;DHT22;31152;49.190;8.122;2023-04-03T00:11:12;6.00;99.90
30186;DHT22;31152;49.190;8.122;2023-04-03T00:13:39;6.00;99.90
30186;DHT22;31152;49.190;8.122;2023-04-03T00:16:07;6.00;99.90
30186;DHT22;31152;49.190;8.122;2023-04-03T00:18:35;5.90;99.90
30186;DHT22;31152;49.190;8.122;2023-04-03T00:21:02;5.90;99.90
30186;DHT22;31152;49.190;8.122;2023-04-03T00:23:29;5.90;99.90
30186;DHT22;31152;49.190;8.122;2023-04-03T00:25:56;5.90;99.90
30186;DHT22;31152;49.190;8.122;2023-04-03T00:28:22;5.80;99.90
30186;DHT22;31152;49.190;8.122;2023-04-03T00:30:50;5.80;99.90
30186;DHT22;31152;49.190;8.122;2023-04-03T00:33:17;5.70;99.90
30186;DHT22;31152;49.190;8.122;2023-04-03T00:35:44;5.70;99.90
30186;DHT22;31152;49.190;8.122;2023-04-03T00:38:11;5.70;99.90
30186;DHT22;31152;49.190;8.122;2023-04-03T00:40:41;5.60;99.90
30186;DHT22;31152;49.190;8.122;2023-04-03T00:43:19;5.60;99.90
30186;DHT22;31152;49.190;8.122;2023-04-03T00:45:49;5.60;99.90
30186;DHT22;31152;49.190;8.122;2023-04-03T00:48:43;5.50;99.90
30186;DHT22;31152;49.190;8.122;2023-04-03T00:51:19;5.50;99.90
30186;DHT22;31152;49.190;8.122;2023-04-03T00:53:50;5.40;99.90
30186;DHT22;31152;49.190;8.122;2023-04-03T00:56:23;5.40;99.90
30186;DHT22;31152;49.190;8.122;2023-04-03T00:58:59;5.40;99.90
30186;DHT22;31152;49.190;8.122;2023-04-03T01:01:28;5.30;99.90
30186;DHT22;31152;49.190;8.122;2023-04-03T01:03:55;5.30;99.90
30186;DHT22;31152;49.190;8.122;2023-04-03T01:06:27;5.20;99.90
30186;DHT22;31152;49.190;8.122;2023-04-03T01:08:55;5.20;99.90
30186;DHT22;31152;49.190;8.122;2023-04-03T01:11:22;5.20;99.90
30186;DHT22;31152;49.190;8.122;2023-04-03T01:13:49;5.20;99.90
30186;DHT22;31152;49.190;8.122;2023-04-03T01:16:16;5.20;99.90
30186;DHT22;31152;49.190;8.122;2023-04-03T01:18:43;5.20;99.90
30186;DHT22;31152;49.190;8.122;2023-04-03T01:26:50;5.10;99.90
30186;DHT22;31152;49.190;8.122;2023-04-03T01:29:17;5.00;99.90
30186;DHT22;31152;49.190;8.122;2023-04-03T01:32:00;5.00;99.90
30186;DHT22;31152;49.190;8.122;2023-04-03T01:34:28;5.00;99.90
30186;DHT22;31152;49.190;8.122;2023-04-03T01:36:56;5.00;99.90
30186;DHT22;31152;49.190;8.122;2023-04-03T01:39:23;5.00;99.90
30186;DHT22;31152;49.190;8.122;2023-04-03T01:41:49;5.00;99.90
30186;DHT22;31152;49.190;8.122;2023-04-03T01:44:16;5.00;99.90
30186;DHT22;31152;49.190;8.122;2023-04-03T01:46:43;5.00;99.90
30186;DHT22;31152;49.190;8.122;2023-04-03T01:49:10;5.00;99.90
30186;DHT22;31152;49.190;8.122;2023-04-03T01:51:37;5.00;99.90
30186;DHT22;31152;49.190;8.122;2023-04-03T01:54:06;4.90;99.90
30186;DHT22;31152;49.190;8.122;2023-04-03T01:56:35;4.90;99.90
30186;DHT22;31152;49.190;8.122;2023-04-03T01:59:04;4.80;99.90
30186;DHT22;31152;49.190;8.122;2023-04-03T02:01:31;4.80;99.90
30186;DHT22;31152;49.190;8.122;2023-04-03T02:03:58;4.80;99.90
30186;DHT22;31152;49.190;8.122;2023-04-03T02:06:27;4.80;99.90
30186;DHT22;31152;49.190;8.122;2023-04-03T02:08:53;4.80;99.90
30186;DHT22;31152;49.190;8.122;2023-04-03T02:11:20;4.80;99.90
30186;DHT22;31152;49.190;8.122;2023-04-03T02:13:47;4.90;99.90
30186;DHT22;31152;49.190;8.122;2023-04-03T02:16:14;4.90;99.90
30186;DHT22;31152;49.190;8.122;2023-04-03T02:18:43;4.90;99.90
30186;DHT22;31152;49.190;8.122;2023-04-03T02:21:10;4.80;99.90
30186;DHT22;31152;49.190;8.122;2023-04-03T02:23:39;4.80;99.90
30186;DHT22;31152;49.190;8.122;2023-04-03T02:26:10;4.80;99.90
30186;DHT22;31152;49.190;8.122;2023-04-03T02:28:38;4.80;99.90
30186;DHT22;31152;49.190;8.122;2023-04-03T02:31:06;4.80;99.90
30186;DHT22;31152;49.190;8.122;2023-04-03T02:33:36;4.80;99.90
30186;DHT22;31152;49.190;8.122;2023-04-03T02:36:06;4.80;99.90
30186;DHT22;31152;49.190;8.122;2023-04-03T02:38:34;4.80;99.90
30186;DHT22;31152;49.190;8.122;2023-04-03T02:41:06;4.80;99.90
30186;DHT22;31152;49.190;8.122;2023-04-03T02:43:33;4.70;99.90
30186;DHT22;31152;49.190;8.122;2023-04-03T02:46:03;4.70;99.90
30186;DHT22;31152;49.190;8.122;2023-04-03T02:48:30;4.70;99.90
30186;DHT22;31152;49.190;8.122;2023-04-03T02:50:57;4.60;99.90
30186;DHT22;31152;49.190;8.122;2023-04-03T02:53:27;4.60;99.90
30186;DHT22;31152;49.190;8.122;2023-04-03T02:55:54;4.60;99.90
30186;DHT22;31152;49.190;8.122;2023-04-03T02:58:20;4.60;99.90
30186;DHT22;31152;49.190;8.122;2023-04-03T03:00:47;4.60;99.90
30186;DHT22;31152;49.190;8.122;2023-04-03T03:03:16;4.60;99.90
30186;DHT22;31152;49.190;8.122;2023-04-03T03:05:45;4.60;99.90
30186;DHT22;31152;49.190;8.122;2023-04-03T03:08:14;4.50;99.90
30186;DHT22;31152;49.190;8.122;2023-04-03T03:10:41;4.50;99.90
30186;DHT22;31152;49.190;8.122;2023-04-03T03:13:08;4.50;99.90
30186;DHT22;31152;49.190;8.122;2023-04-03T03:15:34;4.50;99.90
30186;DHT22;31152;49.190;8.122;2023-04-03T03:18:01;4.50;99.90
30186;DHT22;31152;49.190;8.122;2023-04-03T03:20:28;4.50;99.90
30186;DHT22;31152;49.190;8.122;2023-04-03T03:22:55;4.50;99.90
30186;DHT22;31152;49.190;8.122;2023-04-03T03:25:22;4.50;99.90
30186;DHT22;31152;49.190;8.122;2023-04-03T03:27:48;4.50;99.90
30186;DHT22;31152;49.190;8.122;2023-04-03T03:30:15;4.50;99.90
30186;DHT22;31152;49.190;8.122;2023-04-03T03:32:42;4.50;99.90
30186;DHT22;31152;49.190;8.122;2023-04-03T03:35:10;4.50;99.90
30186;DHT22;31152;49.190;8.122;2023-04-03T03:37:37;4.50;99.90
30186;DHT22;31152;49.190;8.122;2023-04-03T03:40:03;4.50;99.90
30186;DHT22;31152;49.190;8.122;2023-04-03T03:42:30;4.50;99.90
30186;DHT22;31152;49.190;8.122;2023-04-03T03:44:57;4.50;99.90
30186;DHT22;31152;49.190;8.122;2023-04-03T03:47:24;4.50;99.90
30186;DHT22;31152;49.190;8.122;2023-04-03T03:49:52;4.50;99.90
30186;DHT22;31152;49.190;8.122;2023-04-03T03:52:19;4.50;99.90
30186;DHT22;31152;49.190;8.122;2023-04-03T03:54:46;4.50;99.90
30186;DHT22;31152;49.190;8.122;2023-04-03T03:57:15;4.50;99.90
30186;DHT22;31152;49.190;8.122;2023-04-03T03:59:42;4.50;99.90
30186;DHT22;31152;49.190;8.122;2023-04-03T04:02:11;4.50;99.90
30186;DHT22;31152;49.190;8.122;2023-04-03T04:04:38;4.50;99.90
30186;DHT22;31152;49.190;8.122;2023-04-03T04:07:07;4.50;99.90
30186;DHT22;31152;49.190;8.122;2023-04-03T04:09:35;4.50;99.90
30186;DHT22;31152;49.190;8.122;2023-04-03T04:12:02;4.50;99.90
30186;DHT22;31152;49.190;8.122;2023-04-03T04:14:29;4.50;99.90
30186;DHT22;31152;49.190;8.122;2023-04-03T04:16:56;4.60;99.90
30186;DHT22;31152;49.190;8.122;2023-04-03T04:19:23;4.60;99.90
30186;DHT22;31152;49.190;8.122;2023-04-03T04:21:52;4.50;99.90
30186;DHT22;31152;49.190;8.122;2023-04-03T04:24:18;4.50;99.90
30186;DHT22;31152;49.190;8.122;2023-04-03T04:26:45;4.50;99.90
30186;DHT22;31152;49.190;8.122;2023-04-03T04:29:12;4.50;99.90
30186;DHT22;31152;49.190;8.122;2023-04-03T04:31:39;4.50;99.90
30186;DHT22;31152;49.190;8.122;2023-04-03T04:34:06;4.60;99.90
30186;DHT22;31152;49.190;8.122;2023-04-03T04:36:32;4.50;99.90
30186;DHT22;31152;49.190;8.122;2023-04-03T04:38:59;4.50;99.90
30186;DHT22;31152;49.190;8.122;2023-04-03T04:41:29;4.50;99.90
30186;DHT22;31152;49.190;8.122;2023-04-03T04:43:55;4.50;99.90
30186;DHT22;31152;49.190;8.122;2023-04-03T04:46:22;4.40;99.90
30186;DHT22;31152;49.190;8.122;2023-04-03T04:48:49;4.40;99.90
30186;DHT22;31152;49.190;8.122;2023-04-03T04:51:16;4.30;99.90
30186;DHT22;31152;49.190;8.122;2023-04-03T04:53:45;4.30;99.90
30186;DHT22;31152;49.190;8.122;2023-04-03T04:56:12;4.20;99.90
30186;DHT22;31152;49.190;8.122;2023-04-03T04:58:38;4.20;99.90
30186;DHT22;31152;49.190;8.122;2023-04-03T05:01:07;4.20;99.90
30186;DHT22;31152;49.190;8.122;2023-04-03T05:03:35;4.10;99.90
30186;DHT22;31152;49.190;8.122;2023-04-03T05:06:02;4.10;99.90
30186;DHT22;31152;49.190;8.122;2023-04-03T05:08:30;4.00;99.90
30186;DHT22;31152;49.190;8.122;2023-04-03T05:10:57;4.00;99.90
30186;DHT22;31152;49.190;8.122;2023-04-03T05:13:24;4.00;99.90
30186;DHT22;31152;49.190;8.122;2023-04-03T05:15:51;3.90;99.90
30186;DHT22;31152;49.190;8.122;2023-04-03T05:18:18;3.80;99.90
30186;DHT22;31152;49.190;8.122;2023-04-03T05:20:49;3.80;99.90
30186;DHT22;31152;49.190;8.122;2023-04-03T05:23:17;3.80;99.90
30186;DHT22;31152;49.190;8.122;2023-04-03T05:25:44;3.80;99.90
30186;DHT22;31152;49.190;8.122;2023-04-03T05:28:11;3.80;99.90
30186;DHT22;31152;49.190;8.122;2023-04-03T05:30:38;3.80;99.90
30186;DHT22;31152;49.190;8.122;2023-04-03T05:33:05;3.80;99.90
30186;DHT22;31152;49.190;8.122;2023-04-03T05:35:32;3.80;99.90
30186;DHT22;31152;49.190;8.122;2023-04-03T05:38:01;3.70;99.90
30186;DHT22;31152;49.190;8.122;2023-04-03T05:40:28;3.70;99.90
30186;DHT22;31152;49.190;8.122;2023-04-03T05:42:55;3.70;99.90
30186;DHT22;31152;49.190;8.122;2023-04-03T05:45:22;3.70;99.90
30186;DHT22;31152;49.190;8.122;2023-04-03T05:47:50;3.70;99.90
30186;DHT22;31152;49.190;8.122;2023-04-03T05:50:17;3.70;99.90
30186;DHT22;31152;49.190;8.122;2023-04-03T05:52:48;3.70;99.90
30186;DHT22;31152;49.190;8.122;2023-04-03T05:55:15;3.70;99.90
30186;DHT22;31152;49.190;8.122;2023-04-03T05:57:42;3.70;99.90
30186;DHT22;31152;49.190;8.122;2023-04-03T06:00:12;3.80;99.90
30186;DHT22;31152;49.190;8.122;2023-04-03T06:02:41;3.70;99.90
30186;DHT22;31152;49.190;8.122;2023-04-03T06:05:09;3.70;99.90
30186;DHT22;31152;49.190;8.122;2023-04-03T06:07:38;3.80;99.90
30186;DHT22;31152;49.190;8.122;2023-04-03T06:10:05;3.80;99.90
30186;DHT22;31152;49.190;8.122;2023-04-03T06:12:35;3.90;99.90
30186;DHT22;31152;49.190;8.122;2023-04-03T06:15:02;3.90;99.90
30186;DHT22;31152;49.190;8.122;2023-04-03T06:17:30;4.00;99.90
30186;DHT22;31152;49.190;8.122;2023-04-03T06:19:56;4.10;99.90
30186;DHT22;31152;49.190;8.122;2023-04-03T06:22:27;4.20;99.90
30186;DHT22;31152;49.190;8.122;2023-04-03T06:24:57;4.40;99.90
30186;DHT22;31152;49.190;8.122;2023-04-03T06:27:24;4.50;99.90
30186;DHT22;31152;49.190;8.122;2023-04-03T06:29:51;4.60;99.90
30186;DHT22;31152;49.190;8.122;2023-04-03T06:32:17;4.70;99.90
30186;DHT22;31152;49.190;8.122;2023-04-03T06:34:44;4.80;99.90
30186;DHT22;31152;49.190;8.122;2023-04-03T06:37:20;4.80;99.90
30186;DHT22;31152;49.190;8.122;2023-04-03T06:39:47;4.90;99.90
30186;DHT22;31152;49.190;8.122;2023-04-03T06:42:14;5.00;99.90
30186;DHT22;31152;49.190;8.122;2023-04-03T06:44:41;5.00;99.90
30186;DHT22;31152;49.190;8.122;2023-04-03T06:47:15;5.10;99.90
30186;DHT22;31152;49.190;8.122;2023-04-03T06:49:44;5.10;99.90
30186;DHT22;31152;49.190;8.122;2023-04-03T06:52:11;5.20;99.90
30186;DHT22;31152;49.190;8.122;2023-04-03T06:54:39;5.30;99.90
30186;DHT22;31152;49.190;8.122;2023-04-03T06:57:07;5.30;99.90
30186;DHT22;31152;49.190;8.122;2023-04-03T06:59:34;5.40;99.90
30186;DHT22;31152;49.190;8.122;2023-04-03T07:02:04;5.40;99.90
30186;DHT22;31152;49.190;8.122;2023-04-03T07:04:31;5.50;99.90
30186;DHT22;31152;49.190;8.122;2023-04-03T07:06:57;5.60;99.90
30186;DHT22;31152;49.190;8.122;2023-04-03T07:09:24;5.70;99.90
30186;DHT22;31152;49.190;8.122;2023-04-03T07:11:51;5.80;99.90
30186;DHT22;31152;49.190;8.122;2023-04-03T07:14:20;5.90;99.90
30186;DHT22;31152;49.190;8.122;2023-04-03T07:16:47;5.90;99.90
30186;DHT22;31152;49.190;8.122;2023-04-03T07:19:14;6.00;99.90
30186;DHT22;31152;49.190;8.122;2023-04-03T07:21:43;6.10;99.90
30186;DHT22;31152;49.190;8.122;2023-04-03T07:24:10;6.20;99.90
30186;DHT22;31152;49.190;8.122;2023-04-03T07:26:42;6.30;99.90
30186;DHT22;31152;49.190;8.122;2023-04-03T07:29:09;6.40;99.90
30186;DHT22;31152;49.190;8.122;2023-04-03T07:31:39;6.50;99.90
30186;DHT22;31152;49.190;8.122;2023-04-03T07:34:11;6.50;99.90
30186;DHT22;31152;49.190;8.122;2023-04-03T07:36:37;6.60;99.90
30186;DHT22;31152;49.190;8.122;2023-04-03T07:39:06;6.60;99.90
30186;DHT22;31152;49.190;8.122;2023-04-03T07:41:38;6.70;99.90
30186;DHT22;31152;49.190;8.122;2023-04-03T07:44:05;6.80;99.90
30186;DHT22;31152;49.190;8.122;2023-04-03T07:46:32;6.90;99.90
30186;DHT22;31152;49.190;8.122;2023-04-03T07:48:59;7.00;99.90
30186;DHT22;31152;49.190;8.122;2023-04-03T07:51:28;7.10;99.90
30186;DHT22;31152;49.190;8.122;2023-04-03T07:53:57;7.20;99.90
30186;DHT22;31152;49.190;8.122;2023-04-03T07:56:27;7.20;99.90
30186;DHT22;31152;49.190;8.122;2023-04-03T07:58:54;7.30;99.90
30186;DHT22;31152;49.190;8.122;2023-04-03T08:01:20;7.30;99.90
30186;DHT22;31152;49.190;8.122;2023-04-03T08:03:48;7.40;99.90
30186;DHT22;31152;49.190;8.122;2023-04-03T08:06:17;7.50;99.90
30186;DHT22;31152;49.190;8.122;2023-04-03T08:08:55;7.60;99.90
30186;DHT22;31152;49.190;8.122;2023-04-03T08:11:22;7.70;99.90
30186;DHT22;31152;49.190;8.122;2023-04-03T08:13:53;7.70;99.90
30186;DHT22;31152;49.190;8.122;2023-04-03T08:16:22;7.80;99.90
30186;DHT22;31152;49.190;8.122;2023-04-03T08:18:56;7.80;99.90
30186;DHT22;31152;49.190;8.122;2023-04-03T08:21:23;7.90;99.90
30186;DHT22;31152;49.190;8.122;2023-04-03T08:23:52;7.90;99.90
30186;DHT22;31152;49.190;8.122;2023-04-03T08:26:21;8.00;99.90
30186;DHT22;31152;49.190;8.122;2023-04-03T08:28:48;8.00;99.90
30186;DHT22;31152;49.190;8.122;2023-04-03T08:31:18;8.10;99.90
30186;DHT22;31152;49.190;8.122;2023-04-03T08:33:48;8.20;99.90
30186;DHT22;31152;49.190;8.122;2023-04-03T08:36:23;8.30;99.90
30186;DHT22;31152;49.190;8.122;2023-04-03T08:38:52;8.50;99.90
30186;DHT22;31152;49.190;8.122;2023-04-03T08:41:42;8.60;99.90
30186;DHT22;31152;49.190;8.122;2023-04-03T08:47:11;9.00;99.90
30186;DHT22;31152;49.190;8.122;2023-04-03T08:49:42;9.00;99.90
30186;DHT22;31152;49.190;8.122;2023-04-03T08:52:21;9.20;99.90
30186;DHT22;31152;49.190;8.122;2023-04-03T08:54:55;9.30;99.90
30186;DHT22;31152;49.190;8.122;2023-04-03T08:57:43;9.50;98.00
30186;DHT22;31152;49.190;8.122;2023-04-03T09:00:23;9.50;97.30
30186;DHT22;31152;49.190;8.122;2023-04-03T09:02:55;9.60;96.90
30186;DHT22;31152;49.190;8.122;2023-04-03T09:05:48;9.50;96.10
30186;DHT22;31152;49.190;8.122;2023-04-03T09:11:24;9.60;95.30
30186;DHT22;31152;49.190;8.122;2023-04-03T09:13:57;9.60;95.80
30186;DHT22;31152;49.190;8.122;2023-04-03T09:16:47;9.70;95.40
30186;DHT22;31152;49.190;8.122;2023-04-03T09:19:33;9.80;95.00
30186;DHT22;31152;49.190;8.122;2023-04-03T09:22:26;9.90;94.00
30186;DHT22;31152;49.190;8.122;2023-04-03T09:25:27;10.10;93.90
30186;DHT22;31152;49.190;8.122;2023-04-03T09:27:56;10.10;93.00
30186;DHT22;31152;49.190;8.122;2023-04-03T09:30:26;10.10;92.30
30186;DHT22;31152;49.190;8.122;2023-04-03T09:32:54;10.10;92.30
30186;DHT22;31152;49.190;8.122;2023-04-03T09:35:36;10.00;92.50
30186;DHT22;31152;49.190;8.122;2023-04-03T09:38:15;10.00;92.30
30186;DHT22;31152;49.190;8.122;2023-04-03T09:40:44;9.90;91.70
30186;DHT22;31152;49.190;8.122;2023-04-03T09:43:30;9.80;91.60
30186;DHT22;31152;49.190;8.122;2023-04-03T09:46:17;9.70;92.40
30186;DHT22;31152;49.190;8.122;2023-04-03T09:48:51;9.70;92.30
30186;DHT22;31152;49.190;8.122;2023-04-03T09:51:34;9.80;91.90
30186;DHT22;31152;49.190;8.122;2023-04-03T09:54:30;9.90;92.00
30186;DHT22;31152;49.190;8.122;2023-04-03T09:57:01;10.00;92.10
30186;DHT22;31152;49.190;8.122;2023-04-03T09:59:31;10.10;91.80
30186;DHT22;31152;49.190;8.122;2023-04-03T10:02:04;10.10;91.50
30186;DHT22;31152;49.190;8.122;2023-04-03T10:04:42;10.10;91.20
30186;DHT22;31152;49.190;8.122;2023-04-03T10:07:46;10.10;90.70
30186;DHT22;31152;49.190;8.122;2023-04-03T10:10:27;10.10;91.70
30186;DHT22;31152;49.190;8.122;2023-04-03T10:13:09;10.20;90.90
30186;DHT22;31152;49.190;8.122;2023-04-03T10:15:55;10.40;91.10
30186;DHT22;31152;49.190;8.122;2023-04-03T10:21:33;10.40;90.00
30186;DHT22;31152;49.190;8.122;2023-04-03T10:27:26;10.40;89.30
30186;DHT22;31152;49.190;8.122;2023-04-03T10:29:55;10.30;89.00
30186;DHT22;31152;49.190;8.122;2023-04-03T10:38:24;10.10;90.30
30186;DHT22;31152;49.190;8.122;2023-04-03T10:46:56;10.20;90.70
30186;DHT22;31152;49.190;8.122;2023-04-03T10:52:46;10.20;88.20
30186;DHT22;31152;49.190;8.122;2023-04-03T10:55:22;10.20;88.70
30186;DHT22;31152;49.190;8.122;2023-04-03T10:57:53;10.20;87.90
30186;DHT22;31152;49.190;8.122;2023-04-03T11:00:38;10.20;87.70
30186;DHT22;31152;49.190;8.122;2023-04-03T11:05:59;10.00;87.10
30186;DHT22;31152;49.190;8.122;2023-04-03T11:10:56;9.90;89.40
30186;DHT22;31152;49.190;8.122;2023-04-03T11:13:37;9.90;89.80
30186;DHT22;31152;49.190;8.122;2023-04-03T11:16:11;10.00;90.10
30186;DHT22;31152;49.190;8.122;2023-04-03T11:18:54;10.00;88.70
30186;DHT22;31152;49.190;8.122;2023-04-03T11:21:44;10.00;87.70
30186;DHT22;31152;49.190;8.122;2023-04-03T11:24:32;10.10;87.50
30186;DHT22;31152;49.190;8.122;2023-04-03T11:27:00;10.10;85.90
30186;DHT22;31152;49.190;8.122;2023-04-03T11:29:35;10.10;86.00
30186;DHT22;31152;49.190;8.122;2023-04-03T11:34:56;10.20;86.50
30186;DHT22;31152;49.190;8.122;2023-04-03T11:40:00;10.30;87.20
30186;DHT22;31152;49.190;8.122;2023-04-03T11:42:37;10.30;86.50
30186;DHT22;31152;49.190;8.122;2023-04-03T11:45:29;10.20;86.40
30186;DHT22;31152;49.190;8.122;2023-04-03T11:48:06;10.10;87.40
30186;DHT22;31152;49.190;8.122;2023-04-03T11:50:51;10.10;87.10
30186;DHT22;31152;49.190;8.122;2023-04-03T12:01:47;10.10;85.60
30186;DHT22;31152;49.190;8.122;2023-04-03T12:04:15;10.20;85.70
30186;DHT22;31152;49.190;8.122;2023-04-03T12:06:52;10.20;87.40
30186;DHT22;31152;49.190;8.122;2023-04-03T12:09:26;10.20;86.40
30186;DHT22;31152;49.190;8.122;2023-04-03T12:11:56;10.30;84.20
30186;DHT22;31152;49.190;8.122;2023-04-03T12:14:24;10.30;85.30
30186;DHT22;31152;49.190;8.122;2023-04-03T12:16:54;10.40;85.70
30186;DHT22;31152;49.190;8.122;2023-04-03T12:19:34;10.40;86.60
30186;DHT22;31152;49.190;8.122;2023-04-03T12:22:05;10.40;84.10
30186;DHT22;31152;49.190;8.122;2023-04-03T12:24:36;10.30;84.80
30186;DHT22;31152;49.190;8.122;2023-04-03T12:27:30;10.40;85.70
30186;DHT22;31152;49.190;8.122;2023-04-03T12:32:55;10.40;84.70
30186;DHT22;31152;49.190;8.122;2023-04-03T12:35:47;10.40;83.50
30186;DHT22;31152;49.190;8.122;2023-04-03T12:38:50;10.40;82.60
30186;DHT22;31152;49.190;8.122;2023-04-03T12:41:37;10.40;82.30
30186;DHT22;31152;49.190;8.122;2023-04-03T12:44:34;10.30;82.80
30186;DHT22;31152;49.190;8.122;2023-04-03T12:47:23;10.30;82.40
30186;DHT22;31152;49.190;8.122;2023-04-03T12:49:50;10.40;83.40
30186;DHT22;31152;49.190;8.122;2023-04-03T12:52:39;10.40;83.40
30186;DHT22;31152;49.190;8.122;2023-04-03T12:55:15;10.40;81.80
30186;DHT22;31152;49.190;8.122;2023-04-03T12:57:42;10.50;84.20
30186;DHT22;31152;49.190;8.122;2023-04-03T13:00:31;10.60;82.20
30186;DHT22;31152;49.190;8.122;2023-04-03T13:03:03;10.60;82.50
30186;DHT22;31152;49.190;8.122;2023-04-03T13:05:34;10.70;84.20
30186;DHT22;31152;49.190;8.122;2023-04-03T13:08:10;10.70;84.80
30186;DHT22;31152;49.190;8.122;2023-04-03T13:10:52;10.70;84.10
30186;DHT22;31152;49.190;8.122;2023-04-03T13:13:21;10.80;81.40
30186;DHT22;31152;49.190;8.122;2023-04-03T13:15:49;10.90;80.60
30186;DHT22;31152;49.190;8.122;2023-04-03T13:18:27;10.90;79.50
30186;DHT22;31152;49.190;8.122;2023-04-03T13:21:00;10.90;78.70
30186;DHT22;31152;49.190;8.122;2023-04-03T13:23:29;10.90;79.10
30186;DHT22;31152;49.190;8.122;2023-04-03T13:25:57;10.90;79.10
30186;DHT22;31152;49.190;8.122;2023-04-03T13:28:27;10.90;79.20
30186;DHT22;31152;49.190;8.122;2023-04-03T13:31:07;10.80;79.30
30186;DHT22;31152;49.190;8.122;2023-04-03T13:33:51;10.80;79.00
30186;DHT22;31152;49.190;8.122;2023-04-03T13:36:22;10.90;80.00
30186;DHT22;31152;49.190;8.122;2023-04-03T13:41:42;10.90;79.00
30186;DHT22;31152;49.190;8.122;2023-04-03T13:46:57;11.00;77.90
30186;DHT22;31152;49.190;8.122;2023-04-03T13:49:36;11.10;77.80
30186;DHT22;31152;49.190;8.122;2023-04-03T13:52:45;11.10;76.60
30186;DHT22;31152;49.190;8.122;2023-04-03T13:57:57;11.20;78.00
30186;DHT22;31152;49.190;8.122;2023-04-03T14:03:00;11.10;78.10
30186;DHT22;31152;49.190;8.122;2023-04-03T14:05:27;11.10;76.80
30186;DHT22;31152;49.190;8.122;2023-04-03T14:07:57;11.10;76.60
30186;DHT22;31152;49.190;8.122;2023-04-03T14:10:25;11.30;77.40
30186;DHT22;31152;49.190;8.122;2023-04-03T14:12:52;11.60;76.90
30186;DHT22;31152;49.190;8.122;2023-04-03T14:17:51;12.30;73.40
30186;DHT22;31152;49.190;8.122;2023-04-03T14:20:21;12.50;70.80
30186;DHT22;31152;49.190;8.122;2023-04-03T14:22:48;12.40;68.80
30186;DHT22;31152;49.190;8.122;2023-04-03T14:25:16;12.50;68.30
30186;DHT22;31152;49.190;8.122;2023-04-03T14:27:45;12.50;68.50
30186;DHT22;31152;49.190;8.122;2023-04-03T14:30:22;12.70;69.60
30186;DHT22;31152;49.190;8.122;2023-04-03T14:32:50;12.90;68.60
30186;DHT22;31152;49.190;8.122;2023-04-03T14:35:18;13.20;64.20
30186;DHT22;31152;49.190;8.122;2023-04-03T14:37:48;13.30;65.00
30186;DHT22;31152;49.190;8.122;2023-04-03T14:40:18;13.50;64.80
30186;DHT22;31152;49.190;8.122;2023-04-03T14:42:48;13.70;64.30
30186;DHT22;31152;49.190;8.122;2023-04-03T14:45:15;13.80;63.70
30186;DHT22;31152;49.190;8.122;2023-04-03T14:47:46;13.80;64.30
30186;DHT22;31152;49.190;8.122;2023-04-03T14:50:19;13.90;64.40
30186;DHT22;31152;49.190;8.122;2023-04-03T14:52:49;13.90;62.90
30186;DHT22;31152;49.190;8.122;2023-04-03T14:55:17;14.00;62.00
30186;DHT22;31152;49.190;8.122;2023-04-03T14:57:47;14.00;62.40
30186;DHT22;31152;49.190;8.122;2023-04-03T15:00:17;14.20;63.50
30186;DHT22;31152;49.190;8.122;2023-04-03T15:02:44;14.30;62.40
30186;DHT22;31152;49.190;8.122;2023-04-03T15:05:14;14.30;60.50
30186;DHT22;31152;49.190;8.122;2023-04-03T15:07:55;14.10;60.40
30186;DHT22;31152;49.190;8.122;2023-04-03T15:10:26;14.10;60.50
30186;DHT22;31152;49.190;8.122;2023-04-03T15:12:54;14.10;61.20
30186;DHT22;31152;49.190;8.122;2023-04-03T15:15:23;14.10;60.10
30186;DHT22;31152;49.190;8.122;2023-04-03T15:17:53;13.90;58.70
30186;DHT22;31152;49.190;8.122;2023-04-03T15:20:26;13.80;59.30
30186;DHT22;31152;49.190;8.122;2023-04-03T15:22:54;13.50;58.90
30186;DHT22;31152;49.190;8.122;2023-04-03T15:25:24;13.20;59.50
30186;DHT22;31152;49.190;8.122;2023-04-03T15:27:53;13.00;60.50
30186;DHT22;31152;49.190;8.122;2023-04-03T15:30:21;13.00;61.30
30186;DHT22;31152;49.190;8.122;2023-04-03T15:32:48;13.10;61.90
30186;DHT22;31152;49.190;8.122;2023-04-03T15:35:16;13.20;61.80
30186;DHT22;31152;49.190;8.122;2023-04-03T15:37:43;13.30;59.90
30186;DHT22;31152;49.190;8.122;2023-04-03T15:40:12;13.60;60.90
30186;DHT22;31152;49.190;8.122;2023-04-03T15:42:40;14.00;60.00
30186;DHT22;31152;49.190;8.122;2023-04-03T15:45:07;14.60;59.60
30186;DHT22;31152;49.190;8.122;2023-04-03T15:47:38;15.00;58.40
30186;DHT22;31152;49.190;8.122;2023-04-03T15:50:07;15.10;57.50
30186;DHT22;31152;49.190;8.122;2023-04-03T15:52:35;14.90;57.00
30186;DHT22;31152;49.190;8.122;2023-04-03T15:55:03;14.60;57.80
30186;DHT22;31152;49.190;8.122;2023-04-03T15:57:30;15.00;58.30
30186;DHT22;31152;49.190;8.122;2023-04-03T16:00:03;16.00;57.40
30186;DHT22;31152;49.190;8.122;2023-04-03T16:02:30;17.20;55.10
30186;DHT22;31152;49.190;8.122;2023-04-03T16:04:59;18.30;50.20
30186;DHT22;31152;49.190;8.122;2023-04-03T16:07:27;19.20;49.30
30186;DHT22;31152;49.190;8.122;2023-04-03T16:09:54;20.20;46.90
30186;DHT22;31152;49.190;8.122;2023-04-03T16:12:21;20.80;44.70
30186;DHT22;31152;49.190;8.122;2023-04-03T16:14:48;21.20;43.10
30186;DHT22;31152;49.190;8.122;2023-04-03T16:17:15;21.70;42.30
30186;DHT22;31152;49.190;8.122;2023-04-03T16:19:45;22.10;41.70
30186;DHT22;31152;49.190;8.122;2023-04-03T16:22:12;22.90;41.00
30186;DHT22;31152;49.190;8.122;2023-04-03T16:24:39;23.30;37.40
30186;DHT22;31152;49.190;8.122;2023-04-03T16:27:06;23.80;36.80
30186;DHT22;31152;49.190;8.122;2023-04-03T16:29:33;23.90;35.90
30186;DHT22;31152;49.190;8.122;2023-04-03T16:32:02;23.70;35.30
30186;DHT22;31152;49.190;8.122;2023-04-03T16:34:29;23.60;34.50
30186;DHT22;31152;49.190;8.122;2023-04-03T16:37:02;23.50;34.70
30186;DHT22;31152;49.190;8.122;2023-04-03T16:39:31;22.20;35.10
30186;DHT22;31152;49.190;8.122;2023-04-03T16:42:01;20.60;36.40
30186;DHT22;31152;49.190;8.122;2023-04-03T16:44:28;19.80;37.80
30186;DHT22;31152;49.190;8.122;2023-04-03T16:46:56;19.70;39.20
30186;DHT22;31152;49.190;8.122;2023-04-03T16:49:23;20.40;38.70
30186;DHT22;31152;49.190;8.122;2023-04-03T16:51:56;21.10;36.90
30186;DHT22;31152;49.190;8.122;2023-04-03T16:54:26;21.70;36.30
30186;DHT22;31152;49.190;8.122;2023-04-03T16:56:53;22.20;35.60
30186;DHT22;31152;49.190;8.122;2023-04-03T16:59:20;22.60;36.50
30186;DHT22;31152;49.190;8.122;2023-04-03T17:01:47;22.80;35.00
30186;DHT22;31152;49.190;8.122;2023-04-03T17:04:16;22.50;34.40
30186;DHT22;31152;49.190;8.122;2023-04-03T17:06:43;22.40;34.50
30186;DHT22;31152;49.190;8.122;2023-04-03T17:09:10;22.10;34.40
30186;DHT22;31152;49.190;8.122;2023-04-03T17:11:40;21.60;35.10